Time;durP1;ratioP1;P1;durP2;ratioP2;P2;SDS_P1;SDS_P2;PMS_P1;PMS_P2;Temp;Humidity;BMP_temperature;BMP_pressure;BME280_temperature;BME280_humidity;BME280_pressure;Samples;Min_cycle;Max_cycle;Signal;HPM_P1;HPM_P2
2022/08/14 00:01:00;;;;;;;13.40;11.78;;;;;;;19.17;99.07;96219.66;1624795;87;21043;-81
2022/08/14 00:03:30;;;;;;;13.30;11.97;;;;;;;19.18;99.22;96212.83;1622363;87;21078;-81
2022/08/14 00:05:57;;;;;;;13.03;11.63;;;;;;;19.19;99.07;96214.42;1638161;86;21086;-81
2022/08/14 00:08:23;;;;;;;14.03;11.30;;;;;;;19.20;98.81;96206.03;1638535;86;21405;-81
2022/08/14 00:10:48;;;;;;;13.50;12.10;;;;;;;19.20;98.81;96207.34;1640562;86;21054;-81
2022/08/14 00:13:17;;;;;;;13.40;12.03;;;;;;;19.24;98.91;96202.39;1636210;86;21024;-81
2022/08/14 00:15:45;;;;;;;13.70;12.40;;;;;;;19.25;98.62;96203.98;1644977;86;20980;-81
2022/08/14 00:18:13;;;;;;;15.75;11.78;;;;;;;19.23;98.63;96199.48;1614301;86;21446;-81
2022/08/14 00:20:40;;;;;;;16.52;12.88;;;;;;;19.21;98.39;96200.24;1643262;86;21061;-81
2022/08/14 00:23:07;;;;;;;14.10;12.45;;;;;;;19.16;98.29;96194.36;1640312;85;21038;-81
2022/08/14 00:25:33;;;;;;;15.40;13.53;;;;;;;19.07;98.14;96197.13;1642994;86;21095;-82
2022/08/14 00:27:59;;;;;;;22.32;18.95;;;;;;;19.03;98.60;96191.52;1639268;86;21047;-82
2022/08/14 00:30:24;;;;;;;14.63;12.60;;;;;;;19.05;98.99;96188.16;1644378;86;21087;-82
2022/08/14 00:32:50;;;;;;;12.30;11.08;;;;;;;19.01;98.96;96185.70;1648647;86;20984;-82
2022/08/14 00:35:16;;;;;;;12.55;11.25;;;;;;;19.01;98.81;96181.75;1607078;88;21049;-81
2022/08/14 00:37:43;;;;;;;19.17;16.27;;;;;;;19.04;99.00;96179.98;1604666;88;21418;-81
2022/08/14 00:40:12;;;;;;;14.40;11.95;;;;;;;19.05;99.10;96182.89;1619201;87;21039;-82
2022/08/14 00:42:38;;;;;;;14.28;12.78;;;;;;;19.03;98.96;96181.50;1643010;86;21083;-82
2022/08/14 00:45:06;;;;;;;23.60;19.40;;;;;;;19.04;99.32;96172.59;1643124;85;21082;-82
2022/08/14 00:47:34;;;;;;;14.43;12.45;;;;;;;19.04;99.38;96172.08;1624998;86;21958;-81
2022/08/14 00:50:01;;;;;;;19.17;16.73;;;;;;;19.03;99.45;96166.50;1635853;86;20973;-82
2022/08/14 00:52:27;;;;;;;24.60;20.60;;;;;;;19.04;99.66;96165.50;1646227;86;21632;-81
2022/08/14 00:54:53;;;;;;;26.90;23.22;;;;;;;19.01;99.51;96164.63;1642650;86;21031;-81
2022/08/14 00:57:25;;;;;;;26.87;22.22;;;;;;;18.97;99.85;96160.89;1652187;86;21007;-81
2022/08/14 00:59:50;;;;;;;;;;;;;;;18.92;99.95;96160.82;1682464;84;21125;-82
2022/08/14 01:02:18;;;;;;;26.65;22.77;;;;;;;18.85;100.00;96160.95;1682475;84;20469;-82
2022/08/14 01:04:45;;;;;;;26.07;22.82;;;;;;;18.77;100.00;96157.94;1653418;85;21006;-82
2022/08/14 01:07:17;;;;;;;27.22;23.60;;;;;;;18.79;100.00;96159.30;1681065;84;20999;-81
2022/08/14 01:09:39;;;;;;;26.45;23.60;;;;;;;18.73;100.00;96141.83;1682106;84;21031;-81
2022/08/14 01:12:06;;;;;;;26.80;24.00;;;;;;;18.82;100.00;96153.55;1685997;84;21078;-81
2022/08/14 01:14:31;;;;;;;29.90;24.63;;;;;;;18.82;100.00;96152.75;1679677;84;20989;-82
2022/08/14 01:16:58;;;;;;;28.05;24.02;;;;;;;18.78;100.00;96155.59;1655883;85;21043;-81
2022/08/14 01:22:11;;;;;;;30.23;25.05;;;;;;;18.69;100.00;96151.73;1681135;83;21031;-82
2022/08/14 01:24:37;;;;;;;30.52;26.62;;;;;;;18.68;100.00;96153.58;1689522;84;21086;-81
2022/08/14 01:27:04;;;;;;;30.15;25.62;;;;;;;18.67;100.00;96149.87;1686311;84;21364;-81
2022/08/14 01:29:36;;;;;;;27.45;24.47;;;;;;;18.71;100.00;96158.87;1686043;84;20964;-81
2022/08/14 01:32:03;;;;;;;28.83;24.92;;;;;;;18.74;100.00;96155.27;1686515;84;21429;-82
2022/08/14 01:34:26;;;;;;;28.20;25.20;;;;;;;18.74;100.00;96155.27;1690312;84;21005;-82
2022/08/14 01:36:52;;;;;;;30.00;24.15;;;;;;;18.73;100.00;96154.99;1687938;84;21369;-81
2022/08/14 01:39:19;;;;;;;25.82;22.32;;;;;;;18.75;100.00;96156.87;1687471;84;21083;-82
2022/08/14 01:41:59;;;;;;;26.65;22.75;;;;;;;18.72;100.00;96150.77;1683130;84;20990;-82
2022/08/14 01:44:24;;;;;;;27.13;24.02;;;;;;;18.63;100.00;96144.29;1677065;84;20960;-81
2022/08/14 01:46:53;;;;;;;28.15;24.12;;;;;;;18.65;100.00;96154.05;1689600;84;20983;-82
2022/08/14 01:49:18;;;;;;;27.80;24.37;;;;;;;18.68;100.00;96154.89;1687856;83;21354;-81
2022/08/14 01:51:44;;;;;;;26.97;22.50;;;;;;;18.68;100.00;96156.72;1683211;84;20967;-82
2022/08/14 01:54:19;;;;;;;28.38;24.02;;;;;;;18.67;100.00;96163.82;1652842;85;21014;-82
2022/08/14 01:56:43;;;;;;;29.60;23.40;;;;;;;18.74;100.00;96163.69;1668247;84;21093;-81
2022/08/14 01:59:23;;;;;;;27.45;23.20;;;;;;;18.82;100.00;96160.64;1672716;84;21480;-81
2022/08/14 02:01:51;;;;;;;25.77;20.90;;;;;;;18.85;100.00;96158.84;1671114;84;21021;-82
2022/08/14 02:04:19;;;;;;;24.80;21.33;;;;;;;18.88;100.00;96160.51;1673258;84;20996;-81
2022/08/14 02:06:46;;;;;;;24.20;21.57;;;;;;;18.91;100.00;96161.86;1628001;87;21019;-81
2022/08/14 02:09:12;;;;;;;23.52;21.02;;;;;;;18.87;100.00;96160.23;1674526;84;21020;-81
2022/08/14 02:11:38;;;;;;;24.20;20.72;;;;;;;18.86;100.00;96156.49;1668632;84;20986;-81
2022/08/14 02:14:07;;;;;;;23.27;20.77;;;;;;;18.89;100.00;96158.67;1665580;84;21490;-81
2022/08/14 02:16:40;;;;;;;23.90;21.10;;;;;;;18.92;100.00;96158.19;1667324;84;20976;-81
2022/08/14 02:19:14;;;;;;;24.70;21.02;;;;;;;18.96;100.00;96151.92;1667020;84;20991;-81
2022/08/14 02:21:42;;;;;;;23.18;18.98;;;;;;;18.98;100.00;96151.95;1636471;86;21059;-81
2022/08/14 02:24:08;;;;;;;24.07;21.50;;;;;;;19.03;100.00;96147.27;1661154;83;21346;-81
2022/08/14 02:26:36;;;;;;;26.60;20.88;;;;;;;19.04;100.00;96147.58;1662932;84;21086;-81
2022/08/14 02:29:11;;;;;;;25.40;21.00;;;;;;;18.99;100.00;96148.28;1666944;84;21039;-81
2022/08/14 02:31:43;;;;;;;23.57;20.45;;;;;;;18.97;100.00;96148.25;1676127;84;21059;-81
2022/08/14 02:34:19;;;;;;;28.15;21.65;;;;;;;18.98;100.00;96143.26;1617803;87;20992;-82
2022/08/14 02:36:47;;;;;;;24.92;20.97;;;;;;;18.97;100.00;96141.66;1623880;87;21248;-81
2022/08/14 02:39:13;;;;;;;23.73;20.10;;;;;;;18.95;100.00;96135.33;1663295;84;21063;-81
2022/08/14 02:41:39;;;;;;;24.27;19.85;;;;;;;18.96;100.00;96130.86;1665119;84;21531;-81
2022/08/14 02:44:06;;;;;;;23.02;19.00;;;;;;;18.98;100.00;96130.89;1664606;84;21016;-81
2022/08/14 02:46:32;;;;;;;21.85;19.00;;;;;;;19.02;100.00;96134.63;1642825;86;21023;-81
2022/08/14 02:48:58;;;;;;;21.73;17.90;;;;;;;19.09;100.00;96138.44;1670451;83;21461;-81
2022/08/14 02:51:23;;;;;;;24.05;20.90;;;;;;;19.12;100.00;96140.58;1641885;85;21015;-81
2022/08/14 02:53:49;;;;;;;23.62;19.77;;;;;;;19.12;100.00;96136.63;1669947;84;20924;-81
2022/08/14 02:56:18;;;;;;;25.00;22.37;;;;;;;19.11;99.70;96137.67;1677592;84;21007;-82
2022/08/14 02:58:47;;;;;;;25.25;19.82;;;;;;;19.00;99.62;96136.70;1679963;83;21389;-81
2022/08/14 03:01:15;;;;;;;22.93;19.90;;;;;;;18.99;99.67;96143.02;1686798;83;20986;-81
2022/08/14 03:03:40;;;;;;;22.80;18.92;;;;;;;19.02;100.00;96135.95;1666801;85;21496;-81
2022/08/14 03:06:07;;;;;;;23.77;20.25;;;;;;;19.05;100.00;96134.69;1667240;85;21078;-81
2022/08/14 03:08:34;;;;;;;22.90;19.65;;;;;;;19.06;99.85;96134.45;1666055;84;21452;-81
2022/08/14 03:11:00;;;;;;;27.25;22.22;;;;;;;19.10;100.00;96132.92;1662762;85;20995;-81
2022/08/14 03:13:26;;;;;;;24.12;21.48;;;;;;;19.14;99.83;96130.59;1670760;85;21370;-80
2022/08/14 03:15:52;;;;;;;22.35;19.95;;;;;;;19.17;99.75;96130.91;1662909;84;21064;-80
2022/08/14 03:18:20;;;;;;;25.43;20.82;;;;;;;19.18;99.59;96131.70;1666071;85;22210;-81
2022/08/14 03:20:46;;;;;;;22.15;19.70;;;;;;;19.20;99.77;96129.66;1660070;85;21398;-81
2022/08/14 03:23:13;;;;;;;21.90;18.50;;;;;;;19.19;99.39;96128.83;1665608;84;21002;-81
2022/08/14 03:25:39;;;;;;;24.27;20.32;;;;;;;19.17;99.18;96128.80;1668090;85;20999;-81
2022/08/14 03:28:06;;;;;;;22.55;19.87;;;;;;;19.11;99.04;96123.98;1673276;84;20959;-81
2022/08/14 03:30:33;;;;;;;22.93;19.32;;;;;;;19.02;99.04;96124.09;1667915;84;20972;-81
2022/08/14 03:32:59;;;;;;;22.70;20.30;;;;;;;19.01;99.16;96123.02;1667806;84;20996;-81
2022/08/14 03:35:25;;;;;;;20.35;18.05;;;;;;;19.01;99.28;96124.34;1668232;85;21436;-81
2022/08/14 03:37:53;;;;;;;20.80;18.60;;;;;;;19.04;99.49;96129.95;1665789;84;21426;-81
2022/08/14 03:40:20;;;;;;;23.40;18.92;;;;;;;19.08;99.16;96128.94;1666799;84;20982;-82
2022/08/14 03:42:45;;;;;;;24.23;19.67;;;;;;;19.09;99.24;96127.90;1672134;84;20967;-81
2022/08/14 03:45:12;;;;;;;21.62;18.90;;;;;;;19.10;99.22;96130.29;1644987;86;21387;-81
2022/08/14 03:47:39;;;;;;;21.82;19.17;;;;;;;19.08;99.17;96128.42;1685978;84;20998;-81
2022/08/14 03:50:08;;;;;;;19.87;17.80;;;;;;;19.14;99.46;96128.77;1687597;84;21478;-81
2022/08/14 03:52:35;;;;;;;24.98;20.72;;;;;;;19.18;99.23;96129.06;1681201;83;20989;-81
2022/08/14 03:55:02;;;;;;;23.57;20.52;;;;;;;19.18;99.06;96126.44;1684281;83;20961;-82
2022/08/14 03:57:31;;;;;;;27.22;22.20;;;;;;;19.19;99.00;96122.76;1637660;86;21026;-81
2022/08/14 03:59:56;;;;;;;27.15;20.70;;;;;;;19.18;98.88;96122.48;1663196;84;21063;-81
2022/08/14 04:02:23;;;;;;;25.30;21.65;;;;;;;19.18;99.13;96125.12;1657522;83;21158;-82
2022/08/14 04:04:49;;;;;;;24.72;20.15;;;;;;;19.18;99.02;96118.53;1666424;84;21406;-82
2022/08/14 04:09:55;;;;;;;23.67;20.43;;;;;;;19.11;99.05;96123.19;1784246;78;22913;-81
2022/08/14 04:12:21;;;;;;;23.50;19.87;;;;;;;19.05;99.00;96129.42;1757445;80;21055;-81
2022/08/14 04:14:47;;;;;;;25.72;21.07;;;;;;;18.97;98.97;96124.03;1755556;80;20980;-81
2022/08/14 04:17:13;;;;;;;25.97;20.12;;;;;;;18.95;99.15;96124.80;1759079;80;21310;-82
2022/08/14 04:19:39;;;;;;;27.20;21.35;;;;;;;18.93;99.26;96122.13;1755655;80;21027;-82
2022/08/14 04:22:05;;;;;;;24.50;20.55;;;;;;;18.91;99.51;96126.32;1756056;80;21003;-82
2022/08/14 04:24:31;;;;;;;22.45;18.48;;;;;;;18.94;99.53;96123.20;1760351;80;21432;-82
2022/08/14 04:26:57;;;;;;;24.05;19.95;;;;;;;18.96;99.59;96122.44;1763717;80;20999;-81
2022/08/14 04:29:23;;;;;;;24.90;20.00;;;;;;;18.97;99.59;96126.66;1758658;80;21035;-81
2022/08/14 04:31:49;;;;;;;23.22;20.57;;;;;;;18.97;99.54;96126.66;1758795;80;20976;-81
2022/08/14 04:34:16;;;;;;;25.15;20.82;;;;;;;18.98;99.50;96127.46;1754956;81;21442;-82
2022/08/14 04:44:54;;;;;;;26.93;21.68;;;;;;;18.79;99.55;96119.81;1759833;80;20987;-82
2022/08/14 04:50:05;;;;;;;29.10;22.75;;;;;;;18.79;100.00;96119.02;1758627;80;21011;-82
2022/08/14 04:52:30;;;;;;;29.10;22.87;;;;;;;18.78;100.00;96124.00;1756890;80;21294;-82
2022/08/14 04:54:57;;;;;;;30.75;22.17;;;;;;;18.80;100.00;96123.24;1755972;80;20944;-82
2022/08/14 04:57:24;;;;;;;27.65;21.20;;;;;;;18.78;100.00;96126.11;1758506;80;20979;-81
2022/08/14 04:59:55;;;;;;;28.35;21.20;;;;;;;18.84;100.00;96123.83;1760101;80;20975;-81
2022/08/14 05:02:23;;;;;;;23.00;19.20;;;;;;;18.84;100.00;96126.98;1751817;80;21390;-81
2022/08/14 05:04:45;;;;;;;20.45;17.52;;;;;;;18.87;100.00;96122.06;1757261;80;21009;-81
2022/08/14 05:07:11;;;;;;;21.37;18.25;;;;;;;18.94;100.00;96110.56;1758452;80;21395;-81
2022/08/14 05:09:37;;;;;;;20.90;17.73;;;;;;;19.00;100.00;96105.63;1748097;80;21015;-82
2022/08/14 05:12:04;;;;;;;20.45;17.48;;;;;;;18.98;99.33;96115.61;1746630;80;20972;-81
2022/08/14 05:14:29;;;;;;;19.82;17.52;;;;;;;18.93;99.37;96107.65;1743391;80;21003;-80
2022/08/14 05:16:56;;;;;;;19.95;17.50;;;;;;;18.94;99.88;96110.04;1746055;80;21004;-80
2022/08/14 05:19:26;;;;;;;19.62;17.40;;;;;;;18.98;99.93;96103.25;1744322;80;20933;-81
2022/08/14 05:21:55;;;;;;;21.73;17.77;;;;;;;18.98;99.74;96102.45;1745955;80;20979;-81
2022/08/14 05:24:18;;;;;;;20.23;16.67;;;;;;;19.00;99.70;96103.00;1742476;80;21065;-81
2022/08/14 05:26:45;;;;;;;18.62;15.08;;;;;;;19.01;99.88;96101.96;1743894;80;21080;-80
2022/08/14 05:29:12;;;;;;;20.40;17.00;;;;;;;19.05;99.82;96097.31;1743379;80;21458;-81
2022/08/14 05:31:40;;;;;;;19.77;16.50;;;;;;;19.08;99.61;96100.77;1739502;80;20983;-80
2022/08/14 05:34:08;;;;;;;18.10;14.63;;;;;;;19.09;99.60;96098.93;1745144;80;21015;-81
2022/08/14 05:36:35;;;;;;;20.50;17.35;;;;;;;19.11;99.57;96096.85;1743764;80;20964;-81
2022/08/14 05:39:00;;;;;;;20.20;16.60;;;;;;;19.15;99.60;96093.48;1745132;80;21066;-81
2022/08/14 05:41:26;;;;;;;22.42;17.75;;;;;;;19.14;99.44;96099.00;1742071;80;21019;-80
2022/08/14 05:43:52;;;;;;;21.37;17.32;;;;;;;19.14;99.25;96099.79;1741449;80;20917;-81
2022/08/14 05:46:23;;;;;;;20.48;17.85;;;;;;;19.15;99.35;96102.70;1740995;80;21354;-81
2022/08/14 05:48:55;;;;;;;24.57;19.05;;;;;;;19.11;99.01;96097.65;1740972;80;20983;-81
2022/08/14 05:51:21;;;;;;;25.40;20.10;;;;;;;19.11;99.22;96098.17;1744402;80;20971;-81
2022/08/14 05:53:47;;;;;;;20.45;17.55;;;;;;;19.13;99.31;96100.83;1745638;79;21386;-81
2022/08/14 05:56:13;;;;;;;23.70;18.52;;;;;;;19.08;99.32;96103.92;1744019;80;20967;-81
2022/08/14 05:58:39;;;;;;;19.15;16.70;;;;;;;19.05;99.43;96101.78;1743997;80;20999;-81
2022/08/14 06:01:05;;;;;;;18.90;16.87;;;;;;;19.02;99.49;96099.61;1737687;80;20983;-81
2022/08/14 06:03:30;;;;;;;17.85;15.72;;;;;;;19.04;99.61;96094.92;1740407;81;20945;-81
2022/08/14 06:05:56;;;;;;;21.05;17.07;;;;;;;19.04;99.58;96097.03;1745378;80;20974;-81
2022/08/14 06:08:28;;;;;;;19.45;15.93;;;;;;;19.07;99.81;96097.86;1742738;80;21011;-81
2022/08/14 06:11:01;;;;;;;19.70;16.17;;;;;;;19.07;99.49;96099.70;1743823;80;21128;-81
2022/08/14 06:13:25;;;;;;;;;;;;;;;19.03;99.32;96099.36;1746439;80;21038;-81
2022/08/14 06:15:51;;;;;;;17.42;14.95;;;;;;;19.04;99.43;96096.23;1746361;80;20309;-81
2022/08/14 06:18:16;;;;;;;19.42;15.15;;;;;;;19.03;99.83;96097.25;1744346;81;21027;-81
2022/08/14 06:20:42;;;;;;;16.67;14.93;;;;;;;18.98;99.41;96095.34;1743639;80;21061;-81
2022/08/14 06:23:08;;;;;;;19.27;15.75;;;;;;;18.96;99.93;96097.95;1744864;80;21458;-80
2022/08/14 06:25:33;;;;;;;20.77;16.00;;;;;;;19.02;100.00;96100.92;1745944;80;21038;-81
2022/08/14 06:27:59;;;;;;;20.05;16.55;;;;;;;19.08;100.00;96106.03;1742505;80;20961;-80
2022/08/14 06:30:28;;;;;;;20.72;17.73;;;;;;;19.12;100.00;96107.14;1744928;80;21712;-81
2022/08/14 06:32:54;;;;;;;22.00;18.70;;;;;;;19.02;99.65;96097.77;1744866;80;21369;-81
2022/08/14 06:35:21;;;;;;;20.37;16.73;;;;;;;19.03;99.86;96104.63;1719058;81;20992;-81
2022/08/14 06:37:56;;;;;;;23.05;17.85;;;;;;;19.00;100.00;96102.48;1743330;80;21083;-81
2022/08/14 06:40:33;;;;;;;21.85;17.80;;;;;;;19.03;100.00;96101.20;1742524;80;21032;-81
2022/08/14 06:43:05;;;;;;;22.05;18.10;;;;;;;19.03;100.00;96093.30;1743348;81;20971;-81
2022/08/14 06:45:32;;;;;;;22.00;18.45;;;;;;;19.02;100.00;96095.13;1739871;80;21063;-81
2022/08/14 06:47:57;;;;;;;23.12;18.32;;;;;;;19.09;100.00;96094.98;1743436;80;20983;-81
2022/08/14 06:50:24;;;;;;;22.50;19.92;;;;;;;19.06;99.98;96091.52;1741183;80;21051;-81
2022/08/14 06:52:49;;;;;;;21.95;17.42;;;;;;;19.04;100.00;96098.35;1746201;81;22175;-81
2022/08/14 06:55:18;;;;;;;23.07;19.82;;;;;;;19.07;100.00;96096.55;1744615;80;20956;-82
2022/08/14 06:57:48;;;;;;;23.55;18.55;;;;;;;19.07;100.00;96096.55;1742547;80;20963;-81
2022/08/14 07:00:23;;;;;;;23.77;18.67;;;;;;;19.06;100.00;96100.73;1739072;80;20964;-81
2022/08/14 07:05:46;;;;;;;20.15;16.52;;;;;;;19.06;100.00;96098.11;1746548;80;21012;-81
2022/08/14 07:08:25;;;;;;;16.62;14.23;;;;;;;19.09;100.00;96093.67;1748287;80;21000;-81
2022/08/14 07:10:54;;;;;;;21.05;17.92;;;;;;;19.15;100.00;96093.48;1738545;80;21071;-82
2022/08/14 07:13:20;;;;;;;20.90;17.70;;;;;;;19.17;100.00;96090.08;1741359;80;21039;-81
2022/08/14 07:15:49;;;;;;;20.25;17.48;;;;;;;19.23;100.00;96094.92;1742964;80;21048;-81
2022/08/14 07:18:20;;;;;;;19.23;16.00;;;;;;;19.26;100.00;96091.00;1743521;80;21039;-80
2022/08/14 07:20:46;;;;;;;18.55;16.52;;;;;;;19.29;100.00;96092.63;1745366;81;21067;-81
2022/08/14 07:23:12;;;;;;;20.00;16.90;;;;;;;19.34;100.00;96092.68;1747217;81;21035;-80
2022/08/14 07:25:40;;;;;;;20.25;16.52;;;;;;;19.40;100.00;96093.56;1744112;80;20971;-81
2022/08/14 07:28:28;;;;;;;20.90;17.45;;;;;;;19.40;100.00;96094.36;1747878;81;21051;-81
2022/08/14 07:30:56;;;;;;;21.57;18.60;;;;;;;19.48;99.97;96099.71;1747137;80;20991;-81
2022/08/14 07:33:29;;;;;;;21.82;19.23;;;;;;;19.52;100.00;96090.27;1745618;80;21956;-81
2022/08/14 07:35:59;;;;;;;21.33;17.98;;;;;;;19.52;98.86;96088.16;1747483;81;21279;-81
2022/08/14 07:38:26;;;;;;;21.75;17.82;;;;;;;19.47;99.46;96084.94;1745237;80;21430;-81
2022/08/14 07:40:52;;;;;;;24.00;18.87;;;;;;;19.51;99.17;96086.04;1748841;80;20975;-81
2022/08/14 07:43:18;;;;;;;21.07;18.25;;;;;;;19.57;99.71;96086.43;1745302;81;21027;-81
2022/08/14 07:45:44;;;;;;;23.57;17.17;;;;;;;19.66;99.87;96078.88;1744353;80;21007;-81
2022/08/14 07:48:09;;;;;;;21.27;18.25;;;;;;;19.74;98.65;96086.36;1745218;80;20916;-81
2022/08/14 07:50:35;;;;;;;21.00;17.55;;;;;;;19.85;99.31;96078.02;1744275;80;22458;-81
2022/08/14 07:53:01;;;;;;;19.75;17.40;;;;;;;20.05;99.68;96081.69;1745254;80;20944;-81
2022/08/14 07:55:27;;;;;;;19.10;17.07;;;;;;;20.05;99.68;96081.69;1746699;80;20978;-81
2022/08/14 07:57:53;;;;;;;19.37;16.15;;;;;;;20.18;99.84;96088.95;1744249;80;21335;-81
2022/08/14 08:00:21;;;;;;;19.20;16.30;;;;;;;20.27;99.62;96086.11;1746753;80;20952;-81
2022/08/14 08:02:50;;;;;;;18.95;16.77;;;;;;;20.39;99.36;96082.28;1742782;80;20970;-80
2022/08/14 08:05:15;;;;;;;15.80;14.13;;;;;;;20.49;98.78;96085.54;1746802;80;21442;-81
2022/08/14 08:07:43;;;;;;;18.52;15.35;;;;;;;20.57;98.16;96085.62;1745862;80;20972;-84
2022/08/14 08:10:32;;;;;;;15.63;13.95;;;;;;;20.64;97.62;96080.39;1754880;80;21063;-81
2022/08/14 08:13:11;;;;;;;16.00;14.38;;;;;;;20.70;97.27;96079.12;1750188;80;21054;-82
2022/08/14 08:15:42;;;;;;;15.35;13.70;;;;;;;20.78;97.76;96080.77;1753383;80;21418;-81
2022/08/14 08:18:12;;;;;;;16.02;13.95;;;;;;;20.90;97.46;96079.27;1753268;80;20955;-81
2022/08/14 08:20:45;;;;;;;16.10;13.72;;;;;;;20.94;96.94;96079.02;1755643;80;20904;-82
2022/08/14 08:23:14;;;;;;;15.68;13.40;;;;;;;20.95;96.46;96078.77;1752421;80;22057;-82
2022/08/14 08:25:43;;;;;;;15.63;14.03;;;;;;;20.97;96.24;96080.63;1750473;80;21058;-82
2022/08/14 08:28:16;;;;;;;14.60;13.10;;;;;;;20.98;96.04;96076.93;1750218;80;21500;-82
2022/08/14 08:30:50;;;;;;;14.05;12.18;;;;;;;21.03;96.36;96076.19;1755186;80;20998;-82
2022/08/14 08:33:22;;;;;;;15.23;13.68;;;;;;;21.06;96.18;96077.00;1758483;80;20979;-81
2022/08/14 08:35:48;;;;;;;16.12;13.95;;;;;;;21.11;96.37;96073.58;1758319;80;20999;-82
2022/08/14 08:38:18;;;;;;;16.40;13.53;;;;;;;21.11;95.51;96076.22;1753237;80;21023;-81
2022/08/14 08:40:49;;;;;;;14.98;13.32;;;;;;;21.10;95.74;96070.67;1752982;80;21437;-82
2022/08/14 08:43:30;;;;;;;16.20;14.58;;;;;;;21.17;95.33;96073.38;1755265;80;20921;-82
2022/08/14 08:46:08;;;;;;;14.65;13.15;;;;;;;21.18;94.41;96066.23;1750769;80;21071;-81
2022/08/14 08:48:52;;;;;;;14.98;13.32;;;;;;;21.10;94.30;96068.82;1757656;80;21019;-82
2022/08/14 08:51:27;;;;;;;13.80;12.40;;;;;;;21.10;94.29;96065.38;1754505;81;21031;-81
2022/08/14 08:54:06;;;;;;;13.83;11.73;;;;;;;21.14;94.33;96069.09;1755161;80;20956;-81
2022/08/14 08:56:48;;;;;;;16.40;14.55;;;;;;;21.18;93.70;96066.23;1731352;81;20998;-82
2022/08/14 08:59:23;;;;;;;14.73;12.50;;;;;;;21.18;94.00;96064.39;1720727;81;21481;-81
2022/08/14 09:01:56;;;;;;;18.10;14.78;;;;;;;21.18;94.78;96067.03;1726064;81;21040;-81
2022/08/14 09:04:22;;;;;;;19.15;17.07;;;;;;;21.16;93.99;96066.50;1723523;81;20983;-81
2022/08/14 09:06:49;;;;;;;17.77;15.98;;;;;;;21.12;93.68;96069.36;1725471;83;20993;-81
2022/08/14 09:09:24;;;;;;;16.37;14.60;;;;;;;21.08;93.07;96069.61;1722327;81;21461;-82
2022/08/14 09:11:53;;;;;;;17.10;15.28;;;;;;;21.02;93.94;96072.48;1720441;82;20967;-82
2022/08/14 09:14:19;;;;;;;18.05;16.12;;;;;;;20.98;94.01;96068.21;1722302;81;21094;-82
2022/08/14 09:16:47;;;;;;;15.68;13.98;;;;;;;21.01;94.35;96069.58;1726353;82;21026;-82
2022/08/14 09:19:13;;;;;;;16.48;13.70;;;;;;;21.03;94.49;96067.47;1726249;82;20962;-81
2022/08/14 09:21:39;;;;;;;16.00;14.23;;;;;;;21.02;94.51;96073.80;1684095;82;20992;-81
2022/08/14 09:24:07;;;;;;;16.52;13.78;;;;;;;21.04;94.58;96073.02;1730665;82;20981;-81
2022/08/14 09:26:33;;;;;;;15.23;13.62;;;;;;;21.01;94.48;96068.25;1736326;81;21398;-81
2022/08/14 09:28:58;;;;;;;15.72;13.72;;;;;;;21.00;94.37;96069.31;1739870;82;21009;-81
2022/08/14 09:31:24;;;;;;;15.23;13.62;;;;;;;21.01;94.48;96064.30;1729478;81;21372;-82
2022/08/14 09:34:11;;;;;;;15.28;13.78;;;;;;;21.06;95.45;96057.70;1732785;81;20960;-81
2022/08/14 09:37:03;;;;;;;17.10;13.53;;;;;;;21.17;95.32;96058.05;1727184;81;21041;-82
2022/08/14 09:39:59;;;;;;;14.23;12.20;;;;;;;21.30;95.64;96055.47;1728803;81;21462;-82
2022/08/14 09:42:49;;;;;;;14.13;12.55;;;;;;;21.39;95.72;96054.74;1731579;81;21587;-82
2022/08/14 09:45:21;;;;;;;14.03;12.58;;;;;;;21.50;95.02;96053.73;1735001;81;22102;-82
2022/08/14 09:47:53;;;;;;;14.03;12.45;;;;;;;21.62;93.33;96052.17;1724905;81;21039;-82
2022/08/14 09:50:31;;;;;;;13.22;11.90;;;;;;;21.52;92.27;96051.63;1728365;81;21483;-82
2022/08/14 09:53:05;;;;;;;15.08;12.95;;;;;;;21.56;92.78;96050.58;1729333;81;20978;-82
2022/08/14 09:55:34;;;;;;;14.63;13.05;;;;;;;21.52;91.09;96052.16;1710321;81;21384;-82
2022/08/14 09:58:17;;;;;;;13.20;11.68;;;;;;;21.59;93.11;96048.73;1728496;81;21083;-82
2022/08/14 10:01:00;;;;;;;12.37;10.95;;;;;;;21.76;93.66;96043.23;1706948;83;20988;-83
2022/08/14 10:03:31;;;;;;;13.80;12.40;;;;;;;21.97;93.94;96042.25;1726221;81;21048;-83
2022/08/14 10:06:09;;;;;;;13.43;12.10;;;;;;;22.15;92.13;96044.42;1740001;81;21421;-82
2022/08/14 10:08:43;;;;;;;14.03;12.05;;;;;;;22.29;92.39;96052.64;1729798;81;21428;-82
2022/08/14 10:11:22;;;;;;;13.98;12.40;;;;;;;22.44;92.90;96057.12;1731101;82;21016;-83
2022/08/14 10:13:53;;;;;;;14.10;11.55;;;;;;;22.56;90.39;96054.22;1731458;82;21497;-82
2022/08/14 10:16:27;;;;;;;14.45;12.93;;;;;;;22.44;85.84;96059.77;1723384;83;20969;-82
2022/08/14 10:19:08;;;;;;;14.15;12.30;;;;;;;22.47;89.94;96055.30;1721463;82;20953;-83
2022/08/14 10:21:37;;;;;;;15.43;12.53;;;;;;;22.53;90.05;96054.23;1737809;82;21032;-83
2022/08/14 10:24:04;;;;;;;13.25;11.85;;;;;;;22.59;88.20;96053.69;1723238;82;20969;-82
2022/08/14 10:26:30;;;;;;;10.55;9.25;;;;;;;22.54;88.31;96048.41;1682779;84;20940;-82
2022/08/14 10:29:00;;;;;;;13.65;11.18;;;;;;;22.49;84.62;96054.50;1719891;82;21047;-82
2022/08/14 10:31:28;;;;;;;12.35;11.20;;;;;;;22.44;86.96;96053.16;1661293;85;21016;-83
2022/08/14 10:34:08;;;;;;;17.73;11.73;;;;;;;22.46;88.64;96055.03;1723288;82;21055;-83
2022/08/14 10:36:38;;;;;;;13.13;11.05;;;;;;;22.50;89.54;96048.67;1722455;82;20968;-83
2022/08/14 10:39:22;;;;;;;11.75;10.55;;;;;;;22.55;90.11;96050.78;1723295;83;21041;-84
2022/08/14 10:41:50;;;;;;;13.22;10.68;;;;;;;22.59;89.47;96049.72;1712366;82;20976;-83
2022/08/14 10:44:20;;;;;;;13.88;10.65;;;;;;;22.65;89.81;96046.02;1705789;83;20958;-83
2022/08/14 10:47:06;;;;;;;12.75;10.65;;;;;;;22.68;87.77;96046.28;1723979;82;20980;-83
2022/08/14 10:49:25;;;;;;;14.78;11.63;;;;;;;22.75;88.88;96046.79;1722035;83;20937;-83
2022/08/14 10:52:07;;;;;;;13.75;11.55;;;;;;;22.86;90.04;96050.27;1723389;82;20933;-83
2022/08/14 10:54:43;;;;;;;12.78;10.75;;;;;;;22.99;90.04;96052.89;1732094;82;21045;-83
2022/08/14 10:57:24;;;;;;;13.72;11.70;;;;;;;23.08;89.25;96057.89;1725841;82;21016;-83
2022/08/14 10:59:55;;;;;;;13.53;10.53;;;;;;;23.04;88.82;96056.85;1733135;82;21401;-83
2022/08/14 11:02:31;;;;;;;12.20;11.00;;;;;;;23.04;88.72;96050.23;1731300;82;21115;-84
2022/08/14 11:05:13;;;;;;;12.03;10.80;;;;;;;22.95;86.34;96049.20;1723902;82;20958;-82
2022/08/14 11:07:41;;;;;;;11.60;10.13;;;;;;;22.93;87.36;96047.33;1712373;82;21045;-82
2022/08/14 11:10:12;;;;;;;11.22;9.90;;;;;;;22.91;86.10;96054.75;1720084;82;21099;-82
2022/08/14 11:12:46;;;;;;;11.75;10.60;;;;;;;22.88;87.99;96049.45;1717190;83;21060;-82
2022/08/14 11:15:15;;;;;;;11.60;10.28;;;;;;;22.86;87.50;96051.59;1716864;83;20979;-83
2022/08/14 11:17:42;;;;;;;11.18;10.08;;;;;;;22.89;86.98;96052.91;1716122;82;21024;-82
2022/08/14 11:20:09;;;;;;;10.68;9.68;;;;;;;22.96;88.20;96052.11;1718762;82;20934;-82
2022/08/14 11:22:40;;;;;;;10.70;9.10;;;;;;;23.26;88.60;96039.30;1718617;82;21139;-83
2022/08/14 11:25:09;;;;;;;10.75;9.75;;;;;;;23.44;83.44;96042.70;1717976;83;20937;-82
2022/08/14 11:27:35;;;;;;;11.22;10.13;;;;;;;23.56;84.65;96033.09;1698962;83;21004;-82
2022/08/14 11:30:05;;;;;;;11.00;9.78;;;;;;;23.64;85.26;96032.03;1722997;83;20982;-82
2022/08/14 11:32:30;;;;;;;10.85;9.73;;;;;;;23.63;86.07;96032.30;1723847;82;20996;-82
2022/08/14 11:34:58;;;;;;;11.88;10.68;;;;;;;23.60;82.43;96032.86;1711885;82;20991;-83
2022/08/14 11:37:24;;;;;;;11.12;9.90;;;;;;;23.39;84.49;96037.94;1717939;83;21045;-83
2022/08/14 11:39:50;;;;;;;10.82;9.83;;;;;;;23.50;84.05;96036.30;1717372;83;21079;-83
2022/08/14 11:42:22;;;;;;;14.43;10.95;;;;;;;23.67;85.20;96035.20;1718562;82;21047;-83
2022/08/14 11:44:49;;;;;;;10.88;9.65;;;;;;;23.72;85.83;96040.47;1717906;83;20960;-83